createdAt,value
2017-09-15T00:00:33.184Z,90.46
2017-09-15T00:03:01.502Z,90.29
2017-09-15T00:05:29.488Z,90.54
2017-09-15T00:07:57.423Z,90.71
2017-09-15T00:10:25.336Z,90.47
2017-09-15T00:12:53.230Z,90.32
2017-09-15T00:15:21.167Z,90.13
2017-09-15T00:17:49.140Z,90.06
2017-09-15T00:20:17.059Z,90.00
2017-09-15T00:22:44.967Z,90.16
2017-09-15T00:25:12.881Z,89.38
2017-09-15T00:27:40.802Z,89.35
2017-09-15T00:30:08.840Z,89.41
2017-09-15T00:32:36.763Z,89.14
2017-09-15T00:35:05.081Z,88.71
2017-09-15T00:37:32.991Z,89.04
2017-09-15T00:40:00.951Z,88.71
2017-09-15T00:42:28.971Z,88.24
2017-09-15T00:44:56.879Z,88.36
2017-09-15T00:47:25.099Z,88.42
2017-09-15T00:49:53.448Z,88.64
2017-09-15T00:52:21.417Z,88.58
2017-09-15T00:54:49.495Z,88.56
2017-09-15T00:57:17.399Z,88.42
2017-09-15T00:59:45.307Z,88.40
2017-09-15T01:02:13.206Z,88.30
2017-09-15T01:04:41.164Z,88.43
2017-09-15T01:07:09.127Z,88.36
2017-09-15T01:09:37.026Z,88.35
2017-09-15T01:12:05.340Z,88.05
2017-09-15T01:14:33.341Z,88.20
2017-09-15T01:17:01.252Z,87.99
2017-09-15T01:19:29.188Z,87.67
2017-09-15T01:21:57.088Z,88.07
2017-09-15T01:24:25.020Z,88.19
2017-09-15T01:26:52.931Z,88.65
2017-09-15T01:29:20.945Z,89.16
2017-09-15T01:31:48.885Z,89.65
2017-09-15T01:34:16.799Z,89.97
2017-09-15T01:36:44.691Z,89.71
2017-09-15T01:39:12.678Z,89.46
2017-09-15T01:41:40.599Z,89.15
2017-09-15T01:44:08.497Z,88.90
2017-09-15T01:46:36.395Z,88.55
2017-09-15T01:49:04.320Z,88.20
2017-09-15T01:51:32.630Z,88.17
2017-09-15T01:54:00.654Z,88.10
2017-09-15T01:56:28.591Z,88.17
2017-09-15T01:58:56.503Z,88.08
2017-09-15T02:01:24.794Z,88.12
2017-09-15T02:03:52.719Z,88.27
2017-09-15T02:06:20.716Z,88.10
2017-09-15T02:08:49.012Z,88.32
2017-09-15T02:11:16.917Z,88.21
2017-09-15T02:13:44.817Z,88.13
2017-09-15T02:16:13.123Z,87.94
2017-09-15T02:18:41.135Z,87.96
2017-09-15T02:21:09.106Z,88.05
2017-09-15T02:23:37.007Z,87.94
2017-09-15T02:26:05.316Z,88.27
2017-09-15T02:28:33.240Z,88.13
2017-09-15T02:31:01.149Z,88.17
2017-09-15T02:33:29.055Z,88.11
2017-09-15T02:35:56.984Z,87.78
2017-09-15T02:38:24.885Z,88.12
2017-09-15T02:40:52.967Z,87.74
2017-09-15T02:43:20.871Z,87.69
2017-09-15T02:45:49.174Z,87.74
2017-09-15T02:48:17.099Z,87.72
2017-09-15T02:50:45.396Z,87.65
2017-09-15T02:53:13.314Z,87.39
2017-09-15T02:55:41.293Z,87.58
2017-09-15T02:58:09.204Z,87.39
2017-09-15T03:00:37.231Z,87.60
2017-09-15T03:03:05.184Z,87.53
2017-09-15T03:05:33.084Z,87.50
2017-09-15T03:08:01.023Z,87.32
2017-09-15T03:10:28.936Z,87.27
2017-09-15T03:12:57.228Z,87.11
2017-09-15T03:15:25.256Z,87.09
2017-09-15T03:17:53.159Z,87.16
2017-09-15T03:20:21.139Z,87.24
2017-09-15T03:22:49.041Z,87.26
2017-09-15T03:25:16.940Z,87.43
2017-09-15T03:27:45.260Z,87.68
2017-09-15T03:30:13.176Z,87.92
2017-09-15T03:32:41.086Z,87.81
2017-09-15T03:35:08.986Z,88.05
2017-09-15T03:37:36.914Z,87.88
2017-09-15T03:40:04.844Z,87.76
2017-09-15T03:42:32.749Z,87.69
2017-09-15T03:45:00.725Z,87.60
2017-09-15T03:47:28.650Z,87.75
2017-09-15T03:49:56.562Z,88.17
2017-09-15T03:52:24.493Z,88.01
2017-09-15T03:54:52.906Z,87.95
2017-09-15T03:57:20.822Z,88.15
2017-09-15T03:59:48.751Z,87.93
2017-09-15T04:02:16.761Z,88.24
2017-09-15T04:04:44.687Z,88.13
2017-09-15T04:07:12.692Z,87.96
2017-09-15T04:09:40.724Z,88.00
2017-09-15T04:12:08.623Z,87.97
2017-09-15T04:14:36.551Z,87.75
2017-09-15T04:17:04.459Z,87.56
2017-09-15T04:19:32.392Z,87.54
2017-09-15T04:22:00.607Z,87.27
2017-09-15T04:24:28.587Z,87.03
2017-09-15T04:26:56.512Z,86.73
2017-09-15T04:29:24.483Z,86.55
2017-09-15T04:31:52.478Z,86.19
2017-09-15T04:34:20.419Z,86.24
2017-09-15T04:36:48.384Z,86.07
2017-09-15T04:39:16.304Z,85.84
2017-09-15T04:41:44.203Z,85.69
2017-09-15T04:44:12.123Z,85.81
2017-09-15T04:46:40.037Z,85.78
2017-09-15T04:49:08.071Z,85.86
2017-09-15T04:51:35.995Z,86.16
2017-09-15T04:54:03.900Z,86.10
2017-09-15T04:56:31.869Z,86.57
2017-09-15T04:58:59.831Z,86.71
2017-09-15T05:01:27.806Z,86.03
2017-09-15T05:03:55.763Z,85.64
2017-09-15T05:06:23.696Z,85.39
2017-09-15T05:08:51.631Z,85.31
2017-09-15T05:11:19.943Z,85.32
2017-09-15T05:13:47.883Z,85.14
2017-09-15T05:16:16.222Z,84.96
2017-09-15T05:18:44.151Z,84.85
2017-09-15T05:21:12.222Z,84.49
2017-09-15T05:23:40.132Z,84.13
2017-09-15T05:26:08.044Z,83.89
2017-09-15T05:28:35.982Z,84.15
2017-09-15T05:31:03.884Z,84.02
2017-09-15T05:33:31.829Z,83.90
2017-09-15T05:36:00.140Z,83.56
2017-09-15T05:38:28.043Z,83.44
2017-09-15T05:40:55.958Z,83.32
2017-09-15T05:43:24.029Z,83.17
2017-09-15T05:45:51.943Z,82.69
2017-09-15T05:48:19.847Z,82.19
2017-09-15T05:50:48.204Z,80.05
2017-09-15T05:53:16.163Z,77.17
2017-09-15T05:55:44.067Z,75.38
2017-09-15T05:58:12.408Z,75.06
2017-09-15T06:00:40.311Z,75.57
2017-09-15T06:03:08.676Z,75.87
2017-09-15T06:05:38.212Z,76.55
2017-09-15T06:08:06.127Z,76.47
2017-09-15T06:10:34.111Z,77.18
2017-09-15T06:13:02.029Z,77.02
2017-09-15T06:15:30.053Z,77.11
2017-09-15T06:17:57.954Z,76.54
2017-09-15T06:20:25.926Z,76.42
2017-09-15T06:22:53.904Z,76.24
2017-09-15T06:25:21.812Z,76.33
2017-09-15T06:27:49.734Z,75.92
2017-09-15T06:30:17.747Z,76.25
2017-09-15T06:32:45.647Z,74.14
2017-09-15T06:35:14.054Z,68.85
2017-09-15T06:37:42.197Z,66.64
2017-09-15T06:40:10.171Z,68.77
2017-09-15T06:42:38.104Z,70.73
2017-09-15T06:45:06.180Z,71.45
2017-09-15T06:47:34.075Z,72.08
2017-09-15T06:50:02.400Z,71.33
2017-09-15T06:52:30.299Z,72.59
2017-09-15T06:54:58.207Z,70.73
2017-09-15T06:57:26.220Z,69.19
2017-09-15T06:59:54.256Z,67.53
2017-09-15T07:02:22.150Z,62.17
2017-09-15T07:04:50.078Z,56.47
2017-09-15T07:07:17.972Z,55.38
2017-09-15T07:09:45.964Z,57.91
2017-09-15T07:12:13.892Z,60.93
2017-09-15T07:14:41.799Z,60.21
2017-09-15T07:17:09.711Z,58.06
2017-09-15T07:19:37.748Z,57.91
2017-09-15T07:22:05.654Z,57.84
2017-09-15T07:24:33.568Z,56.27
2017-09-15T07:27:01.496Z,55.07
2017-09-15T07:29:29.397Z,55.45
2017-09-15T07:31:57.309Z,56.62
2017-09-15T07:34:25.626Z,56.41
2017-09-15T07:36:53.543Z,50.86
2017-09-15T07:39:21.653Z,49.72
2017-09-15T07:41:49.601Z,48.45
2017-09-15T07:44:17.920Z,46.21
2017-09-15T07:46:45.833Z,45.77
2017-09-15T07:49:14.439Z,42.64
2017-09-15T07:51:42.351Z,44.45
2017-09-15T07:54:10.257Z,43.45
2017-09-15T07:56:38.174Z,43.28
2017-09-15T07:59:06.071Z,43.61
2017-09-15T08:01:34.039Z,43.04
2017-09-15T08:04:01.955Z,40.29
2017-09-15T08:06:29.978Z,38.95
2017-09-15T08:08:57.877Z,36.70
2017-09-15T08:11:25.831Z,35.68
2017-09-15T08:13:54.279Z,35.32
2017-09-15T08:16:22.251Z,35.79
2017-09-15T08:18:50.179Z,35.35
2017-09-15T08:21:18.084Z,34.25
2017-09-15T08:23:46.004Z,33.02
2017-09-15T08:26:13.948Z,33.62
2017-09-15T08:28:42.246Z,35.23
2017-09-15T08:31:10.167Z,34.18
2017-09-15T08:33:38.127Z,34.30
2017-09-15T08:36:06.024Z,32.46
2017-09-15T08:38:33.924Z,32.70
2017-09-15T08:41:01.851Z,32.39
2017-09-15T08:43:29.800Z,34.13
2017-09-15T08:45:57.695Z,33.39
2017-09-15T08:48:26.054Z,31.07
2017-09-15T08:50:53.952Z,29.03
2017-09-15T08:53:22.295Z,29.23
2017-09-15T08:55:50.220Z,29.88
2017-09-15T08:58:18.160Z,34.02
2017-09-15T09:00:46.452Z,37.37
2017-09-15T09:03:14.366Z,40.62
2017-09-15T09:05:42.343Z,43.94
2017-09-15T09:08:10.252Z,46.71
2017-09-15T09:10:38.598Z,48.36
2017-09-15T09:13:06.511Z,48.80
2017-09-15T09:15:34.421Z,45.72
2017-09-15T09:18:02.347Z,41.99
2017-09-15T09:20:30.322Z,40.81
2017-09-15T09:22:58.218Z,38.77
2017-09-15T09:25:26.144Z,38.66
2017-09-15T09:27:54.166Z,36.13
2017-09-15T09:30:22.058Z,34.78
2017-09-15T09:32:50.371Z,32.08
2017-09-15T09:35:18.378Z,31.08
2017-09-15T09:37:46.280Z,32.69
2017-09-15T09:40:14.600Z,34.42
2017-09-15T09:42:42.586Z,34.20
2017-09-15T09:45:10.555Z,33.49
2017-09-15T09:47:38.470Z,33.21
2017-09-15T09:50:06.787Z,31.46
2017-09-15T09:52:34.689Z,30.25
2017-09-15T09:55:02.620Z,28.97
2017-09-15T09:57:30.519Z,30.98
2017-09-15T09:59:58.428Z,32.53
2017-09-15T10:02:26.338Z,37.31
2017-09-15T10:04:54.267Z,38.46
2017-09-15T10:07:22.172Z,41.85
2017-09-15T10:09:50.128Z,41.14
2017-09-15T10:12:18.115Z,38.86
2017-09-15T10:14:46.015Z,37.04
2017-09-15T10:17:14.332Z,35.47
2017-09-15T10:19:42.227Z,33.43
2017-09-15T10:22:10.128Z,32.04
2017-09-15T10:24:38.448Z,30.72
2017-09-15T10:27:06.355Z,30.87
2017-09-15T10:29:34.260Z,31.01
2017-09-15T10:32:02.292Z,30.44
2017-09-15T10:34:30.187Z,31.28
2017-09-15T10:36:58.088Z,30.01
2017-09-15T10:39:26.084Z,30.40
2017-09-15T10:41:53.979Z,29.46
2017-09-15T10:44:22.280Z,28.69
2017-09-15T10:46:50.200Z,30.04
2017-09-15T10:49:18.112Z,31.98
2017-09-15T10:51:46.018Z,33.27
2017-09-15T10:54:13.952Z,35.26
2017-09-15T10:56:41.863Z,37.37
2017-09-15T10:59:15.319Z,35.79
2017-09-15T11:01:43.237Z,36.06
2017-09-15T11:04:11.156Z,34.65
2017-09-15T11:06:39.164Z,34.96
2017-09-15T11:09:07.060Z,35.71
2017-09-15T11:11:35.381Z,36.88
2017-09-15T11:14:03.480Z,39.25
2017-09-15T11:16:31.406Z,40.08
2017-09-15T11:18:59.311Z,40.62
2017-09-15T11:21:27.249Z,42.03
2017-09-15T11:23:55.247Z,42.10
2017-09-15T11:26:23.150Z,42.28
2017-09-15T11:28:51.466Z,42.76
2017-09-15T11:31:19.457Z,42.98
2017-09-15T11:33:47.362Z,44.17
2017-09-15T11:36:15.691Z,44.35
2017-09-15T11:38:43.586Z,43.58
2017-09-15T11:41:11.501Z,43.48
2017-09-15T11:43:39.411Z,43.81
2017-09-15T11:46:07.322Z,44.33
2017-09-15T11:48:35.631Z,44.64
2017-09-15T11:51:03.560Z,44.88
2017-09-15T11:53:31.854Z,44.97
2017-09-15T11:55:59.759Z,45.46
2017-09-15T11:58:27.745Z,45.00
2017-09-15T12:00:55.703Z,45.08
2017-09-15T12:03:23.614Z,44.26
2017-09-15T12:05:51.551Z,43.94
2017-09-15T12:08:19.475Z,44.12
2017-09-15T12:10:47.406Z,45.44
2017-09-15T12:13:15.347Z,45.12
2017-09-15T12:15:43.436Z,44.58
2017-09-15T12:18:11.350Z,44.86
2017-09-15T12:20:39.347Z,43.30
2017-09-15T12:23:07.246Z,42.64
2017-09-15T12:25:35.548Z,41.90
2017-09-15T12:28:03.575Z,42.48
2017-09-15T12:30:31.507Z,42.42
2017-09-15T12:32:59.407Z,43.55
2017-09-15T12:35:27.367Z,44.11
2017-09-15T12:37:55.267Z,44.39
2017-09-15T12:40:23.573Z,43.90
2017-09-15T12:42:51.498Z,42.80
2017-09-15T12:45:19.390Z,42.43
2017-09-15T12:47:47.747Z,43.13
2017-09-15T12:50:15.683Z,43.67
2017-09-15T12:52:43.669Z,44.27
2017-09-15T12:55:11.576Z,43.97
2017-09-15T12:57:39.508Z,43.67
2017-09-15T13:00:07.434Z,43.69
2017-09-15T13:02:35.340Z,43.73
2017-09-15T13:05:03.264Z,44.12
2017-09-15T13:07:31.172Z,44.19
2017-09-15T13:09:59.323Z,44.19
2017-09-15T13:12:27.238Z,43.12
2017-09-15T13:14:55.533Z,43.16
2017-09-15T13:17:23.428Z,43.25
2017-09-15T13:19:51.355Z,43.97
2017-09-15T13:22:19.703Z,43.92
2017-09-15T13:24:47.611Z,44.64
2017-09-15T13:27:15.923Z,44.97
2017-09-15T13:29:43.835Z,44.52
2017-09-15T13:32:11.758Z,44.16
2017-09-15T13:34:39.691Z,44.65
2017-09-15T13:37:07.597Z,44.53
2017-09-15T13:39:35.516Z,44.69
2017-09-15T13:42:03.843Z,44.55
2017-09-15T13:44:32.424Z,44.76
2017-09-15T13:47:00.338Z,44.56
2017-09-15T13:49:28.674Z,44.69
2017-09-15T13:51:56.759Z,45.13
2017-09-15T13:54:24.674Z,45.60
2017-09-15T13:56:52.707Z,45.37
2017-09-15T13:59:20.659Z,44.99
2017-09-15T14:01:48.564Z,44.98
2017-09-15T14:04:17.612Z,45.01
2017-09-15T14:06:45.961Z,45.19
2017-09-15T14:09:13.878Z,45.56
2017-09-15T14:11:41.839Z,45.88
2017-09-15T14:14:09.751Z,46.66
2017-09-15T14:16:37.676Z,46.65
2017-09-15T14:19:05.618Z,47.57
2017-09-15T14:21:34.423Z,48.00
2017-09-15T14:24:02.365Z,48.96
2017-09-15T14:26:30.288Z,50.50
2017-09-15T14:28:59.057Z,51.86
2017-09-15T14:31:27.497Z,53.97
2017-09-15T14:33:55.451Z,56.79
2017-09-15T14:36:23.349Z,57.81
2017-09-15T14:38:51.243Z,59.73
2017-09-15T14:41:19.185Z,60.95
2017-09-15T14:43:47.087Z,63.57
2017-09-15T14:46:15.000Z,64.42
2017-09-15T14:48:42.939Z,63.34
2017-09-15T14:51:11.251Z,62.67
2017-09-15T14:53:39.319Z,62.08
2017-09-15T14:56:07.236Z,60.95
2017-09-15T14:58:35.135Z,59.93
2017-09-15T15:01:03.422Z,57.72
2017-09-15T15:03:31.361Z,57.67
2017-09-15T15:05:59.300Z,56.52
2017-09-15T15:08:27.206Z,56.44
2017-09-15T15:10:55.517Z,55.70
2017-09-15T15:13:23.511Z,56.26
2017-09-15T15:15:51.499Z,57.00
2017-09-15T15:18:19.423Z,58.00
2017-09-15T15:20:47.387Z,56.13
2017-09-15T15:23:15.286Z,57.24
2017-09-15T15:25:43.227Z,57.74
2017-09-15T15:28:11.139Z,57.32
2017-09-15T15:30:39.052Z,57.83
2017-09-15T15:33:06.976Z,56.84
2017-09-15T15:35:35.792Z,56.76
2017-09-15T15:38:04.235Z,57.34
2017-09-15T15:40:32.160Z,57.16
2017-09-15T15:43:00.067Z,57.21
2017-09-15T15:45:27.966Z,57.30
2017-09-15T15:47:55.999Z,57.74
2017-09-15T15:50:23.891Z,57.79
2017-09-15T15:52:52.252Z,57.94
2017-09-15T15:55:20.191Z,57.97
2017-09-15T15:57:48.191Z,58.21
2017-09-15T16:00:16.160Z,58.24
2017-09-15T16:02:44.088Z,58.59
2017-09-15T16:05:11.991Z,58.97
2017-09-15T16:07:39.908Z,58.49
2017-09-15T16:10:07.935Z,58.25
2017-09-15T16:12:35.903Z,58.25
2017-09-15T16:15:03.821Z,58.40
2017-09-15T16:17:31.744Z,59.20
2017-09-15T16:19:59.655Z,59.94
2017-09-15T16:22:27.552Z,60.15
2017-09-15T16:24:55.470Z,60.20
2017-09-15T16:27:23.770Z,60.39
2017-09-15T16:29:51.671Z,60.70
2017-09-15T16:32:19.595Z,61.33
2017-09-15T16:34:47.507Z,61.79
2017-09-15T16:37:15.409Z,62.01
2017-09-15T16:39:49.179Z,62.45
2017-09-15T16:42:22.466Z,62.98
2017-09-15T16:44:56.283Z,63.40
2017-09-15T16:47:29.733Z,63.62
2017-09-15T16:49:57.106Z,64.45
2017-09-15T16:52:25.002Z,64.51
2017-09-15T16:54:52.903Z,64.72
2017-09-15T16:57:21.222Z,64.42
2017-09-15T16:59:49.128Z,64.79
2017-09-15T17:02:17.030Z,65.05
2017-09-15T17:04:44.965Z,65.69
2017-09-15T17:07:12.864Z,65.97
2017-09-15T17:09:40.778Z,66.22
2017-09-15T17:12:08.819Z,66.65
2017-09-15T17:14:36.751Z,67.03
2017-09-15T17:17:05.055Z,67.40
2017-09-15T17:19:33.062Z,67.19
2017-09-15T17:22:00.984Z,67.66
2017-09-15T17:24:28.911Z,67.86
2017-09-15T17:26:56.867Z,68.24
2017-09-15T17:29:24.780Z,68.47
2017-09-15T17:31:53.092Z,69.02
2017-09-15T17:34:21.018Z,69.79
2017-09-15T17:36:49.409Z,70.06
2017-09-15T17:39:17.714Z,70.45
2017-09-15T17:41:45.713Z,71.11
2017-09-15T17:44:13.769Z,71.42
2017-09-15T17:46:41.803Z,71.68
2017-09-15T17:49:09.849Z,72.13
2017-09-15T17:51:38.155Z,72.69
2017-09-15T17:54:06.060Z,72.87
2017-09-15T17:56:33.983Z,73.00
2017-09-15T17:59:01.994Z,73.45
2017-09-15T18:01:30.012Z,73.90
2017-09-15T18:03:58.009Z,73.99
2017-09-15T18:06:26.011Z,73.98
2017-09-15T18:08:53.923Z,74.22
2017-09-15T18:11:22.232Z,74.61
2017-09-15T18:13:50.235Z,75.26
2017-09-15T18:16:18.150Z,75.01
2017-09-15T18:18:46.186Z,75.14
2017-09-15T18:21:14.200Z,75.40
2017-09-15T18:23:42.108Z,75.37
2017-09-15T18:26:10.082Z,75.56
2017-09-15T18:28:37.992Z,75.56
2017-09-15T18:31:05.907Z,75.18
2017-09-15T18:33:33.835Z,75.37
2017-09-15T18:36:01.909Z,75.30
2017-09-15T18:38:29.827Z,75.30
2017-09-15T18:40:57.766Z,75.33
2017-09-15T18:43:25.667Z,75.58
2017-09-15T18:45:53.579Z,75.21
2017-09-15T18:48:21.595Z,75.14
2017-09-15T18:50:49.555Z,75.42
2017-09-15T18:53:17.451Z,74.98
2017-09-15T18:55:45.778Z,74.75
2017-09-15T18:58:13.776Z,74.91
2017-09-15T19:00:41.775Z,74.53
2017-09-15T19:03:10.099Z,74.69
2017-09-15T19:05:37.995Z,75.02
2017-09-15T19:08:05.908Z,74.47
2017-09-15T19:10:33.832Z,74.48
2017-09-15T19:13:01.871Z,74.42
2017-09-15T19:15:29.801Z,74.52
2017-09-15T19:17:58.115Z,74.90
2017-09-15T19:20:26.020Z,75.21
2017-09-15T19:22:53.923Z,75.66
2017-09-15T19:25:22.150Z,76.70
2017-09-15T19:27:50.112Z,77.03
2017-09-15T19:30:18.079Z,77.56
2017-09-15T19:32:46.043Z,78.03
2017-09-15T19:35:14.015Z,78.08
2017-09-15T19:37:41.994Z,78.41
2017-09-15T19:40:09.912Z,78.74
2017-09-15T19:42:37.818Z,78.82
2017-09-15T19:45:05.727Z,79.05
2017-09-15T19:47:34.044Z,79.58
2017-09-15T19:50:02.052Z,80.32
2017-09-15T19:52:29.951Z,79.95
2017-09-15T19:54:57.867Z,80.15
2017-09-15T19:57:25.843Z,80.59
2017-09-15T19:59:53.760Z,80.74
2017-09-15T20:02:21.690Z,80.79
2017-09-15T20:04:49.609Z,81.22
2017-09-15T20:07:17.512Z,81.86
2017-09-15T20:09:45.426Z,81.59
2017-09-15T20:12:13.352Z,81.93
2017-09-15T20:14:41.292Z,82.07
2017-09-15T20:17:09.252Z,82.40
2017-09-15T20:19:37.152Z,82.70
2017-09-15T20:22:05.055Z,82.13
2017-09-15T20:24:32.974Z,82.26
2017-09-15T20:27:00.878Z,82.30
2017-09-15T20:29:28.793Z,82.56
2017-09-15T20:31:56.720Z,82.53
2017-09-15T20:34:24.708Z,82.68
2017-09-15T20:36:52.621Z,82.77
2017-09-15T20:39:20.552Z,82.87
2017-09-15T20:41:48.446Z,82.77
2017-09-15T20:44:16.363Z,83.05
2017-09-15T20:46:44.682Z,83.42
2017-09-15T20:49:12.679Z,83.38
2017-09-15T20:51:40.696Z,83.52
2017-09-15T20:54:08.624Z,83.44
2017-09-15T20:56:36.532Z,83.15
2017-09-15T20:59:04.451Z,83.20
2017-09-15T21:01:32.372Z,83.29
2017-09-15T21:04:00.266Z,83.51
2017-09-15T21:06:28.171Z,83.27
2017-09-15T21:08:56.095Z,83.43
2017-09-15T21:11:24.009Z,82.86
2017-09-15T21:13:51.918Z,83.13
2017-09-15T21:16:19.847Z,83.01
2017-09-15T21:18:48.153Z,83.35
2017-09-15T21:21:16.068Z,83.21
2017-09-15T21:23:43.983Z,83.42
2017-09-15T21:26:11.900Z,83.74
2017-09-15T21:28:39.887Z,83.70
2017-09-15T21:31:07.862Z,84.19
2017-09-15T21:33:35.739Z,84.36
2017-09-15T21:36:04.043Z,83.86
2017-09-15T21:38:31.979Z,83.86
2017-09-15T21:41:00.277Z,83.64
2017-09-15T21:43:28.186Z,83.54
2017-09-15T21:45:56.172Z,83.38
2017-09-15T21:48:24.066Z,83.25
2017-09-15T21:50:51.998Z,82.97
2017-09-15T21:53:19.938Z,82.69
2017-09-15T21:55:47.840Z,82.99
2017-09-15T21:58:15.750Z,82.73
2017-09-15T22:00:43.816Z,82.75
2017-09-15T22:03:11.752Z,83.04
2017-09-15T22:05:39.678Z,82.91
2017-09-15T22:08:07.624Z,83.13
2017-09-15T22:10:35.560Z,83.30
2017-09-15T22:13:03.548Z,83.47
2017-09-15T22:15:32.003Z,83.74
2017-09-15T22:17:59.924Z,83.83
2017-09-15T22:20:27.843Z,83.87
2017-09-15T22:22:55.773Z,84.05
2017-09-15T22:25:23.678Z,83.70
2017-09-15T22:27:51.631Z,84.15
2017-09-15T22:30:19.663Z,84.47
2017-09-15T22:32:47.577Z,84.78
2017-09-15T22:35:15.482Z,84.91
2017-09-15T22:37:43.417Z,84.89
2017-09-15T22:40:11.328Z,84.93
2017-09-15T22:42:39.242Z,85.28
2017-09-15T22:45:07.159Z,85.31
2017-09-15T22:47:35.072Z,84.82
2017-09-15T22:50:02.992Z,84.80
2017-09-15T22:52:30.928Z,84.84
2017-09-15T22:54:58.884Z,85.01
2017-09-15T22:57:26.795Z,85.14
2017-09-15T22:59:54.886Z,85.05
2017-09-15T23:02:22.793Z,85.41
2017-09-15T23:04:50.698Z,85.56
2017-09-15T23:07:19.019Z,85.37
2017-09-15T23:09:47.149Z,84.96
2017-09-15T23:12:15.080Z,85.27
2017-09-15T23:14:43.041Z,85.32
2017-09-15T23:17:10.983Z,85.31
2017-09-15T23:19:38.992Z,85.38
2017-09-15T23:22:06.932Z,85.69
2017-09-15T23:24:34.924Z,85.61
2017-09-15T23:27:02.830Z,85.95
2017-09-15T23:29:30.858Z,85.74
2017-09-15T23:31:58.763Z,85.68
2017-09-15T23:34:27.056Z,85.71
2017-09-15T23:36:54.980Z,86.07
2017-09-15T23:39:23.355Z,85.93
2017-09-15T23:41:51.269Z,86.07
2017-09-15T23:44:19.238Z,86.27
2017-09-15T23:46:47.139Z,86.17
2017-09-15T23:49:15.277Z,86.26
2017-09-15T23:51:43.204Z,86.57
2017-09-15T23:54:11.111Z,86.33
2017-09-15T23:56:39.011Z,86.35
2017-09-15T23:59:06.967Z,85.96
